createdAt,value
2018-08-17T00:01:11.217Z,7.77
2018-08-17T00:03:39.847Z,6.50
2018-08-17T00:06:08.725Z,7.40
2018-08-17T00:08:37.335Z,8.53
2018-08-17T00:11:06.212Z,9.00
2018-08-17T00:13:34.745Z,8.20
2018-08-17T00:16:03.377Z,9.57
2018-08-17T00:18:31.969Z,7.97
2018-08-17T00:21:00.585Z,7.60
2018-08-17T00:23:29.187Z,11.17
2018-08-17T00:25:57.817Z,16.70
2018-08-17T00:28:26.446Z,20.80
2018-08-17T00:30:55.028Z,22.83
2018-08-17T00:33:23.602Z,14.00
2018-08-17T00:35:52.208Z,12.77
2018-08-17T00:38:20.811Z,15.87
2018-08-17T00:40:49.373Z,7.17
2018-08-17T00:43:17.951Z,7.77
2018-08-17T00:45:46.525Z,7.63
2018-08-17T00:48:15.146Z,8.70
2018-08-17T00:50:43.706Z,9.87
2018-08-17T00:53:12.279Z,11.27
2018-08-17T00:55:40.829Z,12.50
2018-08-17T00:58:09.506Z,13.23
2018-08-17T01:00:38.247Z,13.30
2018-08-17T01:03:07.144Z,14.50
2018-08-17T01:05:35.747Z,15.47
2018-08-17T01:08:04.369Z,24.87
2018-08-17T01:10:32.940Z,26.60
2018-08-17T01:13:01.546Z,29.83
2018-08-17T01:15:30.192Z,27.53
2018-08-17T01:17:58.844Z,26.80
2018-08-17T01:20:27.488Z,27.87
2018-08-17T01:22:56.080Z,29.97
2018-08-17T01:25:24.743Z,28.17
2018-08-17T01:27:53.409Z,34.40
2018-08-17T01:30:22.083Z,30.33
2018-08-17T01:32:50.704Z,34.90
2018-08-17T01:35:19.338Z,37.70
2018-08-17T01:37:47.965Z,47.33
2018-08-17T01:40:16.760Z,167.47
2018-08-17T01:42:45.728Z,269.60
2018-08-17T01:45:14.874Z,180.73
2018-08-17T01:47:43.615Z,134.13
2018-08-17T01:50:12.233Z,70.13
2018-08-17T01:52:40.868Z,59.90
2018-08-17T01:55:11.073Z,48.70
2018-08-17T01:57:39.767Z,42.67
2018-08-17T02:00:10.176Z,43.67
2018-08-17T02:02:40.630Z,39.53
2018-08-17T02:05:10.195Z,36.33
2018-08-17T02:07:38.809Z,29.07
2018-08-17T02:10:09.965Z,26.63
2018-08-17T02:12:39.062Z,25.03
2018-08-17T02:15:07.855Z,22.97
2018-08-17T02:17:36.662Z,23.27
2018-08-17T02:20:05.429Z,23.87
2018-08-17T02:22:34.113Z,19.53
2018-08-17T02:25:02.737Z,20.33
2018-08-17T02:27:31.352Z,22.50
2018-08-17T02:29:59.964Z,20.97
2018-08-17T02:32:28.579Z,29.23
2018-08-17T02:34:57.192Z,48.33
2018-08-17T02:37:25.817Z,48.77
2018-08-17T02:39:54.427Z,28.13
2018-08-17T02:42:23.114Z,31.27
2018-08-17T02:44:51.707Z,32.50
2018-08-17T02:47:20.493Z,32.50
2018-08-17T02:49:49.077Z,30.73
2018-08-17T02:52:17.796Z,31.70
2018-08-17T02:54:46.907Z,29.70
2018-08-17T02:57:15.515Z,29.70
2018-08-17T02:59:44.137Z,27.87
2018-08-17T03:02:12.729Z,29.43
2018-08-17T03:04:41.318Z,26.63
2018-08-17T03:07:09.940Z,25.63
2018-08-17T03:09:38.549Z,27.90
2018-08-17T03:12:07.187Z,28.23
2018-08-17T03:14:35.784Z,35.70
2018-08-17T03:17:04.444Z,37.67
2018-08-17T03:19:33.014Z,34.27
2018-08-17T03:22:01.625Z,28.70
2018-08-17T03:24:30.197Z,30.53
2018-08-17T03:26:58.816Z,27.37
2018-08-17T03:29:27.396Z,24.63
2018-08-17T03:31:56.005Z,25.23
2018-08-17T03:34:24.627Z,24.10
2018-08-17T03:36:53.229Z,27.07
2018-08-17T03:39:21.857Z,27.30
2018-08-17T03:41:50.484Z,26.53
2018-08-17T03:44:19.112Z,24.00
2018-08-17T03:46:47.720Z,24.63
2018-08-17T03:49:16.384Z,23.03
2018-08-17T03:51:44.964Z,25.33
2018-08-17T03:54:13.585Z,22.13
2018-08-17T03:56:42.194Z,23.20
2018-08-17T03:59:10.858Z,23.20
2018-08-17T04:01:39.509Z,22.17
2018-08-17T04:04:08.314Z,27.27
2018-08-17T04:06:36.943Z,29.03
2018-08-17T04:09:07.360Z,26.57
2018-08-17T04:11:36.014Z,29.53
2018-08-17T04:14:04.673Z,28.10
2018-08-17T04:16:33.240Z,28.93
2018-08-17T04:19:01.823Z,29.57
2018-08-17T04:21:31.380Z,27.07
2018-08-17T04:24:00.008Z,25.63
2018-08-17T04:26:28.644Z,22.10
2018-08-17T04:28:57.278Z,23.90
2018-08-17T04:31:25.890Z,26.13
2018-08-17T04:33:54.524Z,24.10
2018-08-17T04:36:23.146Z,23.47
2018-08-17T04:38:51.794Z,24.97
2018-08-17T04:41:20.393Z,24.37
2018-08-17T04:43:48.997Z,21.70
2018-08-17T04:46:17.621Z,21.93
2018-08-17T04:48:46.223Z,24.03
2018-08-17T04:51:14.825Z,25.70
2018-08-17T04:53:43.492Z,22.10
2018-08-17T04:56:12.077Z,27.13
2018-08-17T04:58:40.771Z,25.43
2018-08-17T05:01:09.519Z,23.60
2018-08-17T05:03:38.110Z,20.90
2018-08-17T05:06:06.716Z,24.33
2018-08-17T05:08:35.345Z,22.17
2018-08-17T05:11:03.990Z,24.50
2018-08-17T05:13:32.728Z,22.10
2018-08-17T05:16:01.366Z,18.77
2018-08-17T05:18:30.014Z,18.80
2018-08-17T05:20:58.681Z,19.60
2018-08-17T05:23:27.379Z,18.20
2018-08-17T05:25:56.079Z,17.27
2018-08-17T05:28:24.682Z,18.23
2018-08-17T05:30:53.379Z,18.97
2018-08-17T05:33:22.058Z,15.73
2018-08-17T05:35:50.779Z,16.47
2018-08-17T05:38:19.465Z,19.57
2018-08-17T05:40:48.218Z,18.03
2018-08-17T05:43:17.241Z,18.83
2018-08-17T05:45:45.976Z,20.33
2018-08-17T05:48:14.898Z,19.80
2018-08-17T05:50:43.591Z,19.63
2018-08-17T05:53:12.403Z,22.23
2018-08-17T05:55:41.096Z,21.90
2018-08-17T05:58:09.838Z,22.57
2018-08-17T06:00:38.550Z,24.23
2018-08-17T06:03:07.282Z,23.13
2018-08-17T06:05:35.968Z,23.83
2018-08-17T06:08:04.647Z,24.80
2018-08-17T06:10:33.311Z,24.47
2018-08-17T06:13:03.046Z,26.37
2018-08-17T06:15:31.713Z,22.80
2018-08-17T06:18:00.501Z,23.60
2018-08-17T06:20:29.161Z,22.70
2018-08-17T06:22:57.864Z,22.37
2018-08-17T06:25:26.973Z,24.80
2018-08-17T06:27:55.784Z,20.57
2018-08-17T06:30:24.540Z,19.77
2018-08-17T06:32:53.347Z,20.50
2018-08-17T06:35:22.226Z,20.27
2018-08-17T06:37:51.125Z,20.63
2018-08-17T06:40:19.850Z,20.27
2018-08-17T06:42:48.628Z,19.27
2018-08-17T06:45:17.363Z,18.90
2018-08-17T06:47:46.181Z,20.10
2018-08-17T06:50:14.912Z,21.20
2018-08-17T06:52:43.949Z,23.40
2018-08-17T06:55:14.359Z,20.30
2018-08-17T06:57:43.018Z,20.87
2018-08-17T07:00:15.008Z,25.73
2018-08-17T07:02:44.698Z,18.73
2018-08-17T07:05:13.590Z,19.37
2018-08-17T07:07:42.450Z,19.70
2018-08-17T07:10:12.555Z,17.90
2018-08-17T07:12:41.959Z,18.90
2018-08-17T07:15:12.579Z,16.40
2018-08-17T07:17:42.023Z,20.03
2018-08-17T07:20:12.435Z,18.70
2018-08-17T07:22:41.407Z,16.30
2018-08-17T07:25:10.261Z,21.27
2018-08-17T07:27:39.347Z,16.27
2018-08-17T07:30:08.959Z,18.07
2018-08-17T07:32:37.663Z,16.60
2018-08-17T07:35:08.076Z,16.30
2018-08-17T07:37:36.882Z,19.47
2018-08-17T07:40:05.701Z,21.07
2018-08-17T07:42:34.405Z,21.77
2018-08-17T07:45:03.159Z,19.53
2018-08-17T07:47:31.815Z,17.67
2018-08-17T07:50:00.656Z,19.93
2018-08-17T07:52:29.345Z,22.97
2018-08-17T07:54:58.043Z,20.23
2018-08-17T07:57:26.711Z,21.83
2018-08-17T07:59:55.304Z,22.77
2018-08-17T08:02:23.955Z,22.43
2018-08-17T08:04:52.751Z,23.47
2018-08-17T08:07:21.614Z,21.63
2018-08-17T08:09:50.201Z,19.57
2018-08-17T08:12:18.846Z,24.73
2018-08-17T08:14:47.548Z,21.63
2018-08-17T08:17:16.146Z,23.50
2018-08-17T08:19:44.838Z,21.43
2018-08-17T08:22:13.489Z,22.70
2018-08-17T08:24:42.099Z,19.83
2018-08-17T08:27:10.788Z,19.73
2018-08-17T08:29:39.476Z,16.87
2018-08-17T08:32:08.131Z,18.73
2018-08-17T08:34:37.353Z,21.53
2018-08-17T08:37:06.621Z,16.93
2018-08-17T08:39:35.222Z,17.27
2018-08-17T08:42:04.070Z,21.20
2018-08-17T08:44:32.682Z,17.13
2018-08-17T08:47:01.342Z,18.70
2018-08-17T08:49:29.987Z,17.90
2018-08-17T08:51:58.644Z,17.43
2018-08-17T08:54:27.266Z,18.20
2018-08-17T08:56:56.138Z,16.53
2018-08-17T08:59:24.818Z,18.83
2018-08-17T09:01:53.497Z,19.23
2018-08-17T09:04:22.116Z,17.97
2018-08-17T09:06:50.784Z,18.40
2018-08-17T09:09:19.531Z,20.60
2018-08-17T09:11:48.159Z,15.93
2018-08-17T09:14:16.822Z,14.93
2018-08-17T09:16:45.643Z,15.57
2018-08-17T09:19:14.318Z,12.77
2018-08-17T09:21:43.002Z,13.20
2018-08-17T09:24:11.635Z,13.80
2018-08-17T09:26:40.327Z,9.97
2018-08-17T09:29:09.148Z,13.53
2018-08-17T09:31:37.723Z,14.33
2018-08-17T09:34:06.379Z,15.00
2018-08-17T09:36:35.076Z,14.43
2018-08-17T09:39:04.480Z,15.70
2018-08-17T09:41:33.143Z,13.10
2018-08-17T09:44:01.898Z,10.83
2018-08-17T09:46:30.537Z,10.97
2018-08-17T09:48:59.158Z,13.80
2018-08-17T09:51:27.879Z,8.43
2018-08-17T09:53:56.511Z,7.17
2018-08-17T09:56:25.134Z,13.93
2018-08-17T09:58:53.798Z,8.63
2018-08-17T10:01:27.849Z,7.50
2018-08-17T10:04:01.792Z,8.67
2018-08-17T10:06:36.265Z,8.77
2018-08-17T10:09:11.227Z,7.20
2018-08-17T10:11:39.941Z,8.10
2018-08-17T10:14:09.030Z,7.37
2018-08-17T10:16:37.722Z,7.77
2018-08-17T10:19:06.444Z,7.53
2018-08-17T10:21:39.619Z,7.70
2018-08-17T10:24:08.432Z,13.47
2018-08-17T10:26:37.306Z,11.20
2018-08-17T10:29:06.112Z,9.23
2018-08-17T10:31:34.831Z,8.17
2018-08-17T10:34:03.575Z,9.50
2018-08-17T10:36:32.342Z,7.33
2018-08-17T10:39:01.922Z,7.47
2018-08-17T10:41:30.798Z,7.47
2018-08-17T10:43:59.499Z,6.63
2018-08-17T10:46:28.660Z,8.03
2018-08-17T10:48:59.082Z,6.47
2018-08-17T10:51:28.695Z,8.00
2018-08-17T10:53:57.543Z,10.33
2018-08-17T10:56:26.602Z,6.90
2018-08-17T10:58:55.258Z,8.70
2018-08-17T11:01:23.945Z,7.47
2018-08-17T11:03:53.222Z,6.30
2018-08-17T11:06:21.998Z,11.27
2018-08-17T11:08:51.061Z,7.03
2018-08-17T11:11:19.977Z,8.83
2018-08-17T11:13:49.453Z,8.37
2018-08-17T11:16:18.411Z,6.37
2018-08-17T11:18:47.132Z,5.77
2018-08-17T11:21:15.860Z,7.37
2018-08-17T11:23:44.549Z,6.60
2018-08-17T11:26:13.117Z,9.13
2018-08-17T11:28:41.918Z,6.30
2018-08-17T11:31:10.679Z,6.00
2018-08-17T11:33:39.407Z,8.43
2018-08-17T11:36:08.083Z,6.40
2018-08-17T11:38:36.803Z,6.90
2018-08-17T11:41:08.912Z,5.13
2018-08-17T11:43:37.558Z,4.97
2018-08-17T11:46:07.239Z,9.50
2018-08-17T11:48:37.756Z,6.83
2018-08-17T11:51:06.438Z,4.80
2018-08-17T11:53:35.184Z,5.17
2018-08-17T11:56:04.128Z,9.33
2018-08-17T11:58:32.778Z,8.07
2018-08-17T12:01:01.708Z,5.97
2018-08-17T12:03:30.342Z,6.73
2018-08-17T12:05:59.060Z,6.90
2018-08-17T12:08:27.857Z,8.13
2018-08-17T12:11:03.221Z,7.63
2018-08-17T12:13:31.997Z,7.67
2018-08-17T12:16:00.695Z,8.37
2018-08-17T12:18:29.317Z,6.33
2018-08-17T12:20:57.983Z,6.70
2018-08-17T12:23:26.607Z,6.60
2018-08-17T12:25:55.745Z,8.40
2018-08-17T12:28:25.202Z,4.70
2018-08-17T12:30:53.836Z,7.07
2018-08-17T12:33:22.509Z,7.73
2018-08-17T12:35:51.130Z,7.20
2018-08-17T12:38:19.869Z,5.10
2018-08-17T12:40:50.830Z,7.83
2018-08-17T12:43:24.280Z,5.57
2018-08-17T12:45:53.420Z,6.13
2018-08-17T12:48:22.046Z,9.33
2018-08-17T12:50:50.632Z,6.37
2018-08-17T12:53:19.425Z,6.77
2018-08-17T12:55:48.528Z,10.27
2018-08-17T12:58:17.197Z,8.30
2018-08-17T13:00:45.832Z,6.93
2018-08-17T13:03:15.145Z,6.00
2018-08-17T13:05:44.089Z,10.43
2018-08-17T13:08:12.936Z,6.03
2018-08-17T13:10:41.705Z,7.80
2018-08-17T13:13:11.170Z,6.57
2018-08-17T13:15:49.044Z,8.63
2018-08-17T13:18:24.643Z,8.27
2018-08-17T13:20:53.409Z,7.87
2018-08-17T13:23:22.304Z,7.43
2018-08-17T13:25:51.122Z,8.43
2018-08-17T13:28:19.702Z,7.43
2018-08-17T13:30:48.432Z,8.77
2018-08-17T13:33:16.976Z,7.43
2018-08-17T13:35:45.627Z,10.57
2018-08-17T13:38:14.292Z,7.30
2018-08-17T13:40:43.379Z,5.80
2018-08-17T13:43:12.012Z,8.70
2018-08-17T13:45:40.648Z,7.97
2018-08-17T13:48:09.266Z,7.03
2018-08-17T13:50:37.899Z,9.27
2018-08-17T13:53:06.714Z,8.17
2018-08-17T13:55:35.333Z,7.57
2018-08-17T13:58:04.034Z,7.27
2018-08-17T14:00:32.782Z,11.97
2018-08-17T14:03:01.393Z,7.40
2018-08-17T14:05:30.034Z,8.20
2018-08-17T14:08:01.806Z,8.00
2018-08-17T14:10:30.900Z,9.40
2018-08-17T14:12:59.784Z,7.80
2018-08-17T14:15:29.927Z,7.57
2018-08-17T14:17:58.629Z,10.57
2018-08-17T14:20:27.467Z,9.47
2018-08-17T14:22:56.052Z,14.87
2018-08-17T14:25:24.782Z,7.53
2018-08-17T14:27:55.531Z,9.10
2018-08-17T14:30:24.325Z,10.33
2018-08-17T14:32:56.421Z,10.07
2018-08-17T14:35:25.764Z,8.80
2018-08-17T14:37:54.509Z,9.53
2018-08-17T14:40:27.026Z,8.70
2018-08-17T14:42:55.752Z,11.27
2018-08-17T14:45:24.436Z,8.80
2018-08-17T14:47:53.108Z,10.90
2018-08-17T14:50:23.806Z,9.47
2018-08-17T14:52:52.544Z,10.10
2018-08-17T14:55:21.320Z,10.53
2018-08-17T14:57:50.112Z,10.40
2018-08-17T15:00:18.750Z,7.57
2018-08-17T15:02:47.359Z,8.40
2018-08-17T15:05:16.252Z,9.37
2018-08-17T15:07:44.951Z,10.30
2018-08-17T15:10:14.408Z,11.57
2018-08-17T15:12:43.856Z,8.70
2018-08-17T15:15:13.096Z,8.40
2018-08-17T15:17:41.752Z,11.60
2018-08-17T15:20:11.927Z,10.03
2018-08-17T15:22:40.661Z,10.67
2018-08-17T15:25:09.380Z,6.13
2018-08-17T15:27:38.074Z,6.80
2018-08-17T15:30:08.489Z,8.70
2018-08-17T15:32:37.209Z,8.23
2018-08-17T15:35:06.315Z,7.83
2018-08-17T15:37:35.015Z,8.27
2018-08-17T15:40:04.267Z,8.60
2018-08-17T15:42:33.658Z,9.03
2018-08-17T15:45:02.385Z,11.53
2018-08-17T15:47:34.060Z,10.03
2018-08-17T15:50:12.337Z,9.93
2018-08-17T15:52:41.168Z,8.77
2018-08-17T15:55:09.932Z,9.07
2018-08-17T15:57:42.973Z,8.97
2018-08-17T16:00:14.874Z,8.67
2018-08-17T16:02:43.625Z,10.57
2018-08-17T16:05:13.235Z,11.90
2018-08-17T16:07:41.995Z,8.93
2018-08-17T16:10:13.052Z,12.73
2018-08-17T16:12:41.800Z,9.70
2018-08-17T16:15:11.371Z,10.77
2018-08-17T16:17:40.199Z,11.50
2018-08-17T16:20:10.665Z,10.80
2018-08-17T16:22:39.501Z,9.53
2018-08-17T16:25:09.297Z,12.33
2018-08-17T16:27:38.120Z,13.47
2018-08-17T16:30:08.133Z,10.07
2018-08-17T16:32:36.772Z,14.27
2018-08-17T16:35:05.674Z,7.33
2018-08-17T16:37:34.463Z,9.27
2018-08-17T16:40:03.171Z,8.13
2018-08-17T16:42:36.066Z,7.23
2018-08-17T16:45:08.280Z,5.97
2018-08-17T16:47:37.242Z,7.13
2018-08-17T16:50:07.183Z,7.50
2018-08-17T16:52:35.988Z,6.90
2018-08-17T16:55:04.833Z,6.23
2018-08-17T16:57:33.543Z,7.47
2018-08-17T17:00:02.324Z,7.23
2018-08-17T17:02:31.129Z,5.70
2018-08-17T17:04:59.995Z,5.33
2018-08-17T17:07:31.563Z,6.70
2018-08-17T17:10:00.732Z,6.47
2018-08-17T17:12:29.531Z,11.37
2018-08-17T17:15:07.680Z,7.37
2018-08-17T17:17:36.350Z,7.53
2018-08-17T17:20:06.349Z,8.63
2018-08-17T17:22:35.039Z,7.63
2018-08-17T17:25:09.908Z,7.57
2018-08-17T17:27:38.562Z,6.23
2018-08-17T17:30:07.407Z,5.17
2018-08-17T17:32:35.991Z,4.07
2018-08-17T17:35:04.805Z,7.60
2018-08-17T17:37:33.433Z,8.13
2018-08-17T17:40:02.106Z,5.37
2018-08-17T17:42:30.712Z,5.33
2018-08-17T17:44:59.333Z,4.97
2018-08-17T17:47:28.055Z,3.90
2018-08-17T17:49:56.781Z,5.50
2018-08-17T17:52:25.425Z,6.80
2018-08-17T17:54:54.050Z,3.20
2018-08-17T17:57:22.649Z,4.80
2018-08-17T17:59:56.374Z,3.83
2018-08-17T18:02:25.676Z,3.90
2018-08-17T18:04:54.270Z,4.63
2018-08-17T18:07:23.194Z,5.43
2018-08-17T18:09:51.770Z,7.00
2018-08-17T18:12:20.355Z,5.47
2018-08-17T18:14:49.050Z,6.30
2018-08-17T18:17:17.836Z,6.73
2018-08-17T18:19:46.663Z,7.70
2018-08-17T18:22:20.771Z,5.80
2018-08-17T18:24:49.466Z,3.33
2018-08-17T18:27:18.146Z,4.97
2018-08-17T18:29:46.813Z,3.37
2018-08-17T18:32:15.641Z,4.53
2018-08-17T18:34:44.429Z,6.33
2018-08-17T18:37:13.164Z,8.03
2018-08-17T18:39:41.904Z,9.27
2018-08-17T18:42:11.062Z,12.57
2018-08-17T18:44:39.858Z,7.17
2018-08-17T18:47:08.848Z,3.07
2018-08-17T18:49:37.560Z,3.43
2018-08-17T18:52:06.368Z,6.47
2018-08-17T18:54:35.134Z,4.60
2018-08-17T18:57:03.797Z,4.70
2018-08-17T18:59:32.563Z,3.40
2018-08-17T19:02:01.828Z,4.70
2018-08-17T19:04:30.491Z,6.67
2018-08-17T19:06:59.359Z,5.20
2018-08-17T19:09:28.305Z,4.20
2018-08-17T19:11:57.018Z,4.40
2018-08-17T19:14:25.859Z,9.00
2018-08-17T19:16:55.048Z,8.93
2018-08-17T19:19:23.919Z,5.53
2018-08-17T19:21:52.582Z,7.10
2018-08-17T19:24:21.423Z,7.00
2018-08-17T19:26:50.031Z,8.07
2018-08-17T19:29:18.925Z,5.83
2018-08-17T19:31:55.594Z,8.50
2018-08-17T19:34:27.780Z,7.07
2018-08-17T19:36:56.394Z,6.87
2018-08-17T19:39:33.986Z,6.03
2018-08-17T19:42:03.109Z,7.43
2018-08-17T19:44:31.840Z,8.00
2018-08-17T19:47:00.473Z,7.77
2018-08-17T19:49:29.151Z,9.17
2018-08-17T19:51:57.767Z,10.40
2018-08-17T19:54:26.579Z,11.23
2018-08-17T19:56:55.342Z,8.37
2018-08-17T19:59:24.206Z,8.83
2018-08-17T20:01:52.938Z,7.43
2018-08-17T20:04:21.638Z,6.37
2018-08-17T20:06:50.271Z,5.80
2018-08-17T20:09:19.000Z,7.90
2018-08-17T20:11:47.684Z,5.20
2018-08-17T20:14:16.271Z,4.93
2018-08-17T20:16:44.918Z,5.37
2018-08-17T20:19:13.618Z,12.07
2018-08-17T20:21:42.273Z,9.33
2018-08-17T20:24:10.971Z,8.10
2018-08-17T20:26:40.012Z,8.20
2018-08-17T20:29:08.422Z,8.47
2018-08-17T20:31:43.449Z,11.87
2018-08-17T20:34:12.095Z,9.40
2018-08-17T20:36:40.916Z,12.20
2018-08-17T20:39:13.416Z,14.87
2018-08-17T20:41:42.070Z,10.43
2018-08-17T20:44:10.723Z,7.17
2018-08-17T20:46:39.313Z,7.53
2018-08-17T20:49:07.944Z,7.77
2018-08-17T20:51:43.235Z,6.33
2018-08-17T20:54:11.855Z,6.57
2018-08-17T20:56:40.465Z,7.00
2018-08-17T20:59:09.092Z,7.83
2018-08-17T21:01:37.701Z,7.53
2018-08-17T21:04:06.378Z,6.53
2018-08-17T21:06:35.840Z,5.93
2018-08-17T21:09:06.334Z,7.27
2018-08-17T21:11:35.076Z,8.37
2018-08-17T21:14:03.632Z,7.33
2018-08-17T21:16:32.238Z,7.70
2018-08-17T21:19:00.853Z,5.50
2018-08-17T21:21:29.512Z,6.27
2018-08-17T21:23:58.105Z,7.57
2018-08-17T21:26:27.117Z,6.87
2018-08-17T21:28:55.847Z,7.07
2018-08-17T21:31:24.446Z,7.87
2018-08-17T21:33:53.078Z,8.17
2018-08-17T21:36:21.654Z,7.40
2018-08-17T21:39:04.184Z,7.00
2018-08-17T21:41:32.895Z,10.43
2018-08-17T21:44:01.395Z,9.30
2018-08-17T21:46:29.987Z,8.10
2018-08-17T21:48:58.594Z,9.23
2018-08-17T21:51:31.389Z,11.77
2018-08-17T21:54:00.822Z,9.43
2018-08-17T21:56:29.434Z,10.40
2018-08-17T21:58:58.228Z,9.07
2018-08-17T22:01:26.902Z,11.33
2018-08-17T22:03:55.573Z,9.70
2018-08-17T22:06:24.141Z,11.60
2018-08-17T22:08:52.767Z,10.33
2018-08-17T22:11:33.868Z,14.47
2018-08-17T22:14:02.494Z,19.83
2018-08-17T22:16:31.103Z,16.57
2018-08-17T22:18:59.814Z,13.37
2018-08-17T22:21:28.331Z,9.83
2018-08-17T22:23:56.951Z,12.43
2018-08-17T22:26:25.877Z,9.63
2018-08-17T22:28:54.894Z,9.50
2018-08-17T22:31:35.608Z,9.23
2018-08-17T22:34:04.394Z,9.80
2018-08-17T22:36:32.994Z,12.00
2018-08-17T22:39:01.621Z,12.47
2018-08-17T22:41:30.197Z,11.07
2018-08-17T22:43:59.530Z,14.27
2018-08-17T22:46:28.141Z,18.07
2018-08-17T22:48:56.782Z,17.63
2018-08-17T22:51:25.273Z,16.50
2018-08-17T22:53:53.877Z,17.73
2018-08-17T22:56:22.479Z,19.67
2018-08-17T22:58:51.062Z,23.00
2018-08-17T23:01:20.854Z,18.37
2018-08-17T23:03:53.760Z,21.37
2018-08-17T23:06:23.688Z,18.20
2018-08-17T23:08:52.378Z,15.07
2018-08-17T23:11:28.498Z,11.77
2018-08-17T23:13:59.395Z,9.47
2018-08-17T23:16:27.972Z,11.50
2018-08-17T23:18:56.544Z,14.00
2018-08-17T23:21:25.170Z,14.13
2018-08-17T23:23:53.688Z,21.63
2018-08-17T23:26:22.298Z,25.37
2018-08-17T23:28:51.554Z,30.40
2018-08-17T23:31:20.144Z,28.43
2018-08-17T23:33:48.797Z,28.40
2018-08-17T23:36:17.407Z,27.93
2018-08-17T23:38:46.017Z,25.53
2018-08-17T23:41:14.616Z,21.17
2018-08-17T23:43:43.158Z,18.83
2018-08-17T23:46:11.767Z,14.40
2018-08-17T23:48:40.433Z,20.63
2018-08-17T23:51:09.084Z,18.50
2018-08-17T23:53:37.683Z,25.67
2018-08-17T23:56:06.343Z,20.97
2018-08-17T23:58:34.953Z,24.13
